Time;durP1;ratioP1;P1;durP2;ratioP2;P2;SDS_P1;SDS_P2;PMS_P1;PMS_P2;Temp;Humidity;BMP_temperature;BMP_pressure;BME280_temperature;BME280_humidity;BME280_pressure;Samples;Min_cycle;Max_cycle;Signal;HPM_P1;HPM_P2
2022/04/14 00:01:50;;;;;;;1.13;1.13;;;13.90;99.90;;;;;;5038184;28;20311;-61
2022/04/14 00:04:17;;;;;;;1.30;1.20;;;13.90;99.90;;;;;;5041795;28;20292;-62
2022/04/14 00:06:44;;;;;;;1.27;1.17;;;13.90;99.90;;;;;;5047284;28;20706;-62
2022/04/14 00:09:10;;;;;;;1.50;1.40;;;13.80;99.90;;;;;;5037365;28;20721;-63
2022/04/14 00:11:38;;;;;;;1.23;1.17;;;13.80;99.90;;;;;;5043298;28;20299;-64
2022/04/14 00:14:05;;;;;;;1.73;1.27;;;13.70;99.90;;;;;;5045939;28;20235;-62
2022/04/14 00:16:32;;;;;;;1.20;1.10;;;13.70;99.90;;;;;;5042679;28;20696;-63
2022/04/14 00:19:01;;;;;;;1.27;1.17;;;13.60;99.90;;;;;;5042210;28;20692;-62
2022/04/14 00:21:27;;;;;;;1.40;1.30;;;13.60;99.90;;;;;;5040124;28;20316;-61
2022/04/14 00:23:54;;;;;;;1.25;1.15;;;13.60;99.90;;;;;;5033591;28;20224;-62
2022/04/14 00:26:21;;;;;;;1.30;1.20;;;13.60;99.90;;;;;;5039421;28;20290;-62
2022/04/14 00:28:48;;;;;;;1.30;1.20;;;13.60;99.90;;;;;;5039203;28;20295;-62
2022/04/14 00:31:15;;;;;;;1.30;1.20;;;13.60;99.90;;;;;;5041727;28;20232;-61
2022/04/14 00:33:42;;;;;;;1.33;1.23;;;13.60;99.90;;;;;;5036853;28;20286;-61
2022/04/14 00:36:10;;;;;;;1.30;1.20;;;13.60;99.90;;;;;;5038233;28;20363;-62
2022/04/14 00:38:37;;;;;;;1.10;1.10;;;13.50;99.90;;;;;;5042527;28;20236;-62
2022/04/14 00:41:04;;;;;;;1.00;1.00;;;13.50;99.90;;;;;;5041957;28;20710;-61
2022/04/14 00:43:32;;;;;;;1.60;1.40;;;13.50;99.90;;;;;;5044445;28;20256;-62
2022/04/14 00:46:00;;;;;;;1.30;1.20;;;13.40;99.90;;;;;;5035650;28;20243;-62
2022/04/14 00:48:28;;;;;;;1.13;1.10;;;13.40;99.90;;;;;;5037684;28;20212;-64
2022/04/14 00:50:55;;;;;;;1.83;1.30;;;13.30;99.90;;;;;;5029918;28;20729;-62
2022/04/14 00:53:24;;;;;;;1.25;1.15;;;13.20;99.90;;;;;;5041603;28;20298;-61
2022/04/14 00:55:51;;;;;;;2.03;1.30;;;13.30;99.90;;;;;;5043738;28;20733;-62
2022/04/14 00:58:19;;;;;;;1.83;1.40;;;13.30;99.90;;;;;;5039201;28;20215;-62
2022/04/14 01:00:46;;;;;;;2.25;1.20;;;13.30;99.90;;;;;;5040001;28;20650;-62
2022/04/14 01:03:14;;;;;;;1.70;1.25;;;13.30;99.90;;;;;;5045763;28;20310;-63
2022/04/14 01:05:42;;;;;;;1.17;1.10;;;13.30;99.90;;;;;;5041427;28;20346;-63
2022/04/14 01:08:09;;;;;;;1.40;1.30;;;13.30;99.90;;;;;;5047238;28;20196;-62
2022/04/14 01:10:40;;;;;;;1.10;1.10;;;13.20;99.90;;;;;;5045751;28;20283;-61
2022/04/14 01:13:09;;;;;;;1.23;1.17;;;13.10;99.90;;;;;;5046416;28;20285;-63
2022/04/14 01:15:36;;;;;;;1.20;1.10;;;13.10;99.90;;;;;;5045588;28;20200;-62
2022/04/14 01:18:03;;;;;;;1.48;1.30;;;13.10;99.90;;;;;;5043564;28;20247;-61
2022/04/14 01:20:30;;;;;;;1.58;1.48;;;13.10;99.90;;;;;;5033153;28;20307;-62
2022/04/14 01:22:58;;;;;;;1.40;1.25;;;13.00;99.90;;;;;;5043534;28;20227;-61
2022/04/14 01:25:27;;;;;;;1.10;1.00;;;12.90;99.90;;;;;;5042961;28;20228;-61
2022/04/14 01:27:54;;;;;;;1.17;1.10;;;12.80;99.90;;;;;;5045166;28;20355;-61
2022/04/14 01:30:22;;;;;;;1.20;1.10;;;12.90;99.90;;;;;;5040151;28;20242;-61
2022/04/14 01:32:49;;;;;;;1.27;1.27;;;12.90;99.90;;;;;;5039527;28;20318;-63
2022/04/14 01:35:17;;;;;;;1.10;1.10;;;12.90;99.90;;;;;;5046305;28;20228;-61
2022/04/14 01:37:44;;;;;;;1.38;1.10;;;12.90;99.90;;;;;;5042959;28;20722;-61
2022/04/14 01:40:11;;;;;;;1.00;0.97;;;12.80;99.90;;;;;;5042631;28;20291;-64
2022/04/14 01:42:40;;;;;;;1.05;1.02;;;12.80;99.90;;;;;;5043465;28;20698;-63
2022/04/14 01:45:09;;;;;;;1.23;1.20;;;12.90;99.90;;;;;;5032330;28;20287;-61
2022/04/14 01:47:39;;;;;;;1.13;1.13;;;12.90;99.90;;;;;;5031985;28;20204;-62
2022/04/14 01:50:08;;;;;;;1.50;1.40;;;12.90;99.90;;;;;;5032781;28;20237;-62
2022/04/14 01:52:36;;;;;;;2.00;1.33;;;12.90;99.90;;;;;;5035167;28;20239;-60
2022/04/14 01:55:03;;;;;;;1.17;1.13;;;13.00;99.90;;;;;;5039159;28;20240;-62
2022/04/14 01:57:30;;;;;;;1.30;1.20;;;13.00;99.90;;;;;;5035258;28;20236;-62
2022/04/14 01:59:59;;;;;;;1.25;1.15;;;13.10;99.90;;;;;;5033981;28;20717;-61
2022/04/14 02:02:26;;;;;;;1.20;1.10;;;13.00;99.90;;;;;;5032665;28;20556;-60
2022/04/14 02:04:53;;;;;;;1.33;1.23;;;13.10;99.90;;;;;;5032966;28;20741;-62
2022/04/14 02:07:20;;;;;;;1.10;1.10;;;13.10;99.90;;;;;;5032508;28;20247;-63
2022/04/14 02:09:47;;;;;;;1.50;1.40;;;13.00;99.90;;;;;;5033600;28;20204;-62
2022/04/14 02:12:14;;;;;;;1.35;1.23;;;13.00;99.90;;;;;;5034441;28;20259;-64
2022/04/14 02:14:41;;;;;;;1.30;1.20;;;13.00;99.90;;;;;;5032939;28;20295;-64
2022/04/14 02:17:09;;;;;;;1.20;1.20;;;13.00;99.90;;;;;;5031971;28;20296;-63
2022/04/14 02:19:36;;;;;;;0.90;0.90;;;13.00;99.90;;;;;;5032586;28;20244;-63
2022/04/14 02:22:03;;;;;;;1.10;1.10;;;13.00;99.90;;;;;;5032730;28;20316;-62
2022/04/14 02:24:30;;;;;;;1.23;1.15;;;13.10;99.90;;;;;;5032914;28;20240;-61
2022/04/14 02:26:57;;;;;;;1.30;1.20;;;13.10;99.90;;;;;;5032391;28;20244;-61
2022/04/14 02:29:23;;;;;;;1.40;1.30;;;13.10;99.90;;;;;;5032917;28;20231;-63
2022/04/14 02:31:51;;;;;;;1.10;1.10;;;13.10;99.90;;;;;;5031761;28;20260;-62
2022/04/14 02:34:20;;;;;;;1.10;1.10;;;13.00;99.90;;;;;;5042046;22;20365;-69
2022/04/14 02:36:47;;;;;;;1.23;1.20;;;13.00;99.90;;;;;;5031708;28;20291;-68
2022/04/14 02:39:14;;;;;;;1.47;1.30;;;13.00;99.90;;;;;;5032489;28;20247;-70
2022/04/14 02:41:41;;;;;;;1.30;1.20;;;13.00;99.90;;;;;;5031962;28;20228;-70
2022/04/14 02:44:08;;;;;;;1.95;1.35;;;13.00;99.90;;;;;;5031989;28;20259;-68
2022/04/14 02:46:34;;;;;;;1.30;1.20;;;13.00;99.90;;;;;;5031598;28;20855;-68
2022/04/14 02:49:01;;;;;;;1.13;1.13;;;13.00;99.90;;;;;;5032607;28;20243;-66
2022/04/14 02:51:30;;;;;;;1.30;1.20;;;13.10;99.90;;;;;;5035291;28;20614;-67
2022/04/14 02:53:57;;;;;;;1.27;1.25;;;13.10;99.90;;;;;;5032937;28;20311;-67
2022/04/14 02:56:23;;;;;;;1.10;1.10;;;13.10;99.90;;;;;;5032143;28;20209;-70
2022/04/14 02:58:50;;;;;;;1.43;1.33;;;13.10;99.90;;;;;;5032393;28;20295;-68
2022/04/14 03:01:17;;;;;;;1.30;1.20;;;13.10;99.90;;;;;;5032348;28;20244;-70
2022/04/14 03:03:44;;;;;;;1.20;1.10;;;13.10;99.90;;;;;;5032385;28;20319;-67
2022/04/14 03:06:11;;;;;;;1.33;1.25;;;13.20;99.90;;;;;;5031445;28;20655;-68
2022/04/14 03:08:39;;;;;;;1.23;1.20;;;13.10;99.90;;;;;;5032576;28;20295;-69
2022/04/14 03:11:06;;;;;;;1.13;1.13;;;13.00;99.90;;;;;;5033311;28;20200;-68
2022/04/14 03:13:33;;;;;;;1.37;1.27;;;13.00;99.90;;;;;;5033056;28;20312;-67
2022/04/14 03:15:59;;;;;;;1.60;1.35;;;13.00;99.90;;;;;;5037144;28;20232;-70
2022/04/14 03:18:26;;;;;;;1.40;1.30;;;13.00;99.90;;;;;;5035286;28;20731;-68
2022/04/14 03:20:53;;;;;;;1.13;1.10;;;13.10;99.90;;;;;;5032412;28;20638;-70
2022/04/14 03:23:20;;;;;;;1.20;1.20;;;13.10;99.90;;;;;;5034546;28;20270;-69
2022/04/14 03:25:50;;;;;;;2.20;1.40;;;13.10;99.90;;;;;;5031925;28;20263;-68
2022/04/14 03:28:17;;;;;;;1.60;1.50;;;13.00;99.90;;;;;;5032431;28;20675;-68
2022/04/14 03:30:44;;;;;;;1.53;1.40;;;13.00;99.90;;;;;;5032863;28;20208;-67
2022/04/14 03:33:10;;;;;;;1.57;1.47;;;13.00;99.90;;;;;;5031745;28;20679;-67
2022/04/14 03:35:37;;;;;;;1.17;1.17;;;13.00;99.90;;;;;;5031512;28;20667;-68
2022/04/14 03:38:04;;;;;;;1.30;1.20;;;13.00;99.90;;;;;;5032143;28;20287;-69
2022/04/14 03:40:31;;;;;;;1.13;1.13;;;13.00;99.90;;;;;;5032016;28;20228;-66
2022/04/14 03:42:59;;;;;;;1.50;1.40;;;13.00;99.90;;;;;;5033542;28;20259;-68
2022/04/14 03:45:26;;;;;;;1.73;1.40;;;12.90;99.90;;;;;;5035555;28;20236;-68
2022/04/14 03:47:53;;;;;;;1.50;1.40;;;12.90;99.90;;;;;;5034953;28;20436;-67
2022/04/14 03:50:20;;;;;;;1.40;1.30;;;12.90;99.90;;;;;;5035622;28;20584;-68
2022/04/14 03:52:47;;;;;;;1.30;1.20;;;12.80;99.90;;;;;;5035240;28;20656;-69
2022/04/14 03:55:14;;;;;;;1.20;1.17;;;12.80;99.90;;;;;;5035216;28;20247;-67
2022/04/14 03:57:41;;;;;;;1.38;1.27;;;12.80;99.90;;;;;;5034460;28;20358;-70
2022/04/14 04:00:10;;;;;;;1.50;1.40;;;12.70;99.90;;;;;;5035592;28;20291;-66
2022/04/14 04:02:37;;;;;;;1.60;1.50;;;12.70;99.90;;;;;;5037928;28;20307;-67
2022/04/14 04:05:05;;;;;;;1.27;1.20;;;12.70;99.90;;;;;;5040096;28;20299;-67
2022/04/14 04:07:32;;;;;;;1.10;1.10;;;12.70;99.90;;;;;;5038030;28;20205;-69
2022/04/14 04:09:59;;;;;;;1.10;1.10;;;12.80;99.90;;;;;;5036325;28;20295;-70
2022/04/14 04:12:26;;;;;;;1.40;1.30;;;12.80;99.90;;;;;;5036539;28;20232;-69
2022/04/14 04:14:53;;;;;;;1.23;1.17;;;12.70;99.90;;;;;;5035962;28;20307;-66
2022/04/14 04:17:21;;;;;;;1.33;1.30;;;12.80;99.90;;;;;;5035513;28;20650;-68
2022/04/14 04:19:48;;;;;;;1.03;1.03;;;12.80;99.90;;;;;;5034963;28;20243;-69
2022/04/14 04:22:15;;;;;;;1.37;1.30;;;12.70;99.90;;;;;;5034698;28;20710;-68
2022/04/14 04:24:42;;;;;;;1.90;1.40;;;12.70;99.90;;;;;;5034848;28;20228;-69
2022/04/14 04:27:08;;;;;;;1.60;1.50;;;12.70;99.90;;;;;;5033965;28;21503;-69
2022/04/14 04:29:35;;;;;;;1.40;1.30;;;12.70;99.90;;;;;;5034380;28;20255;-70
2022/04/14 04:32:02;;;;;;;1.60;1.40;;;12.70;99.90;;;;;;5034399;28;20289;-69
2022/04/14 04:34:31;;;;;;;1.40;1.30;;;12.60;99.90;;;;;;5034793;28;20267;-68
2022/04/14 04:36:57;;;;;;;1.85;1.42;;;12.60;99.90;;;;;;5033022;28;20201;-67
2022/04/14 04:39:24;;;;;;;1.73;1.40;;;12.50;99.90;;;;;;5033685;28;20201;-68
2022/04/14 04:41:51;;;;;;;1.40;1.30;;;12.40;99.90;;;;;;5034142;28;20776;-66
2022/04/14 04:44:18;;;;;;;1.30;1.30;;;12.30;99.90;;;;;;5034069;28;20316;-66
2022/04/14 04:46:45;;;;;;;1.43;1.30;;;12.30;99.90;;;;;;5033658;28;20296;-67
2022/04/14 04:49:12;;;;;;;1.77;1.40;;;12.30;99.90;;;;;;5034472;28;20817;-66
2022/04/14 04:51:40;;;;;;;1.52;1.42;;;12.30;99.90;;;;;;5034406;28;20295;-67
2022/04/14 04:54:07;;;;;;;1.35;1.25;;;12.10;99.90;;;;;;5034912;28;20263;-67
2022/04/14 04:56:34;;;;;;;1.40;1.30;;;12.10;99.90;;;;;;5034291;28;20247;-67
2022/04/14 04:59:01;;;;;;;1.27;1.20;;;12.10;99.90;;;;;;5034931;28;20243;-68
2022/04/14 05:01:27;;;;;;;1.30;1.23;;;12.10;99.90;;;;;;5045207;28;20215;-71
2022/04/14 05:03:54;;;;;;;1.20;1.20;;;12.00;99.90;;;;;;5055050;28;20228;-69
2022/04/14 05:06:21;;;;;;;1.20;1.20;;;12.10;99.90;;;;;;5044730;28;20208;-68
2022/04/14 05:08:49;;;;;;;1.50;1.40;;;12.10;99.90;;;;;;5051951;28;20239;-69
2022/04/14 05:11:16;;;;;;;1.40;1.30;;;12.20;99.90;;;;;;5047648;28;20282;-66
2022/04/14 05:13:43;;;;;;;1.17;1.10;;;12.20;99.90;;;;;;5026300;28;20255;-66
2022/04/14 05:16:11;;;;;;;1.20;1.20;;;12.20;99.90;;;;;;5029554;28;20683;-69
2022/04/14 05:18:39;;;;;;;1.40;1.30;;;12.20;99.90;;;;;;5031524;28;20201;-68
2022/04/14 05:21:05;;;;;;;1.60;1.50;;;12.10;99.90;;;;;;5033601;28;20205;-69
2022/04/14 05:23:32;;;;;;;1.50;1.40;;;12.10;99.90;;;;;;5032719;28;20235;-69
2022/04/14 05:26:01;;;;;;;1.42;1.30;;;12.20;99.90;;;;;;5036907;28;20289;-68
2022/04/14 05:28:27;;;;;;;1.67;1.20;;;12.20;99.90;;;;;;5034254;28;20224;-67
2022/04/14 05:30:54;;;;;;;1.45;1.35;;;12.30;99.90;;;;;;5034434;28;20243;-67
2022/04/14 05:33:21;;;;;;;1.70;1.60;;;12.30;99.90;;;;;;5033430;28;20235;-70
2022/04/14 05:35:48;;;;;;;1.60;1.50;;;12.30;99.90;;;;;;5032641;28;20301;-66
2022/04/14 05:38:16;;;;;;;1.80;1.38;;;12.30;99.90;;;;;;5034192;28;20214;-67
2022/04/14 05:40:45;;;;;;;1.40;1.30;;;12.30;99.90;;;;;;5033754;28;20740;-68
2022/04/14 05:43:17;;;;;;;2.47;1.40;;;12.30;99.90;;;;;;5033717;28;20228;-69
2022/04/14 05:45:47;;;;;;;1.38;1.33;;;12.30;99.90;;;;;;5033215;28;20220;-68
2022/04/14 05:48:14;;;;;;;1.50;1.40;;;12.40;99.90;;;;;;5033524;28;20240;-69
2022/04/14 05:50:41;;;;;;;2.70;1.70;;;12.50;99.90;;;;;;5033442;28;20581;-68
2022/04/14 05:53:08;;;;;;;1.70;1.60;;;12.50;99.90;;;;;;5033097;28;20668;-68
2022/04/14 05:55:36;;;;;;;1.40;1.30;;;12.70;99.90;;;;;;5032381;28;20211;-68
2022/04/14 05:58:04;;;;;;;1.45;1.35;;;12.70;99.90;;;;;;5032950;28;20616;-67
2022/04/14 06:00:33;;;;;;;1.90;1.80;;;12.80;99.90;;;;;;5027835;28;20212;-67
2022/04/14 06:03:00;;;;;;;1.37;1.20;;;12.90;99.90;;;;;;5025360;28;20259;-69
2022/04/14 06:05:28;;;;;;;1.43;1.30;;;13.00;99.90;;;;;;5029660;28;20293;-68
2022/04/14 06:07:55;;;;;;;1.60;1.47;;;13.10;99.90;;;;;;5032297;28;20197;-68
2022/04/14 06:10:23;;;;;;;1.58;1.48;;;13.20;99.90;;;;;;5032873;28;20691;-68
2022/04/14 06:12:50;;;;;;;2.20;1.70;;;13.30;99.90;;;;;;5032560;28;20223;-68
2022/04/14 06:15:18;;;;;;;1.77;1.67;;;13.30;99.90;;;;;;5033221;28;20546;-67
2022/04/14 06:17:46;;;;;;;1.33;1.30;;;13.50;99.90;;;;;;5033141;28;20209;-67
2022/04/14 06:20:14;;;;;;;1.67;1.57;;;13.60;99.90;;;;;;5035713;28;20200;-67
2022/04/14 06:22:42;;;;;;;1.60;1.50;;;13.60;99.90;;;;;;5040355;28;20256;-67
2022/04/14 06:25:13;;;;;;;1.50;1.40;;;13.70;99.90;;;;;;5037268;28;20208;-68
2022/04/14 06:27:41;;;;;;;1.30;1.25;;;13.80;99.90;;;;;;5032641;28;20295;-66
2022/04/14 06:30:10;;;;;;;1.40;1.20;;;13.90;99.90;;;;;;5032724;28;20647;-67
2022/04/14 06:32:37;;;;;;;1.50;1.40;;;14.00;99.90;;;;;;5032289;28;20367;-68
2022/04/14 06:35:07;;;;;;;2.00;1.30;;;14.10;99.90;;;;;;5033229;28;20204;-69
2022/04/14 06:37:34;;;;;;;1.53;1.43;;;14.20;99.90;;;;;;5031804;28;20254;-67
2022/04/14 06:40:01;;;;;;;1.40;1.30;;;14.20;99.90;;;;;;5031828;28;20240;-69
2022/04/14 06:42:28;;;;;;;2.13;1.40;;;14.30;99.90;;;;;;5031524;28;20311;-68
2022/04/14 06:44:59;;;;;;;1.33;1.23;;;14.40;99.90;;;;;;5032345;28;20204;-67
2022/04/14 06:47:26;;;;;;;1.52;1.42;;;14.50;99.90;;;;;;5039632;28;20248;-67
2022/04/14 06:49:53;;;;;;;1.48;1.25;;;14.60;99.90;;;;;;5040798;28;20209;-71
2022/04/14 06:52:22;;;;;;;2.28;1.50;;;14.70;99.90;;;;;;5041770;28;20231;-68
2022/04/14 06:54:49;;;;;;;1.10;1.10;;;14.90;99.90;;;;;;5041030;28;20391;-68
2022/04/14 06:57:17;;;;;;;1.63;1.48;;;15.10;99.90;;;;;;5040993;28;20212;-69
2022/04/14 06:59:44;;;;;;;1.20;1.20;;;15.20;99.90;;;;;;5043809;28;20659;-67
2022/04/14 07:02:11;;;;;;;1.50;1.40;;;15.30;99.90;;;;;;5035546;28;20293;-67
2022/04/14 07:04:38;;;;;;;1.48;1.35;;;15.40;99.90;;;;;;5038739;28;20303;-68
2022/04/14 07:07:05;;;;;;;1.60;1.50;;;15.50;99.90;;;;;;5037304;28;20283;-68
2022/04/14 07:09:34;;;;;;;1.13;1.13;;;15.70;99.90;;;;;;5037357;28;20310;-70
2022/04/14 07:12:01;;;;;;;1.50;1.40;;;15.80;99.90;;;;;;5033203;28;20208;-69
2022/04/14 07:14:30;;;;;;;1.45;1.38;;;16.00;99.90;;;;;;5030026;28;20311;-69
2022/04/14 07:16:57;;;;;;;2.20;2.10;;;16.10;99.90;;;;;;5026954;28;20663;-68
2022/04/14 07:19:24;;;;;;;2.20;2.10;;;16.20;99.90;;;;;;5037442;28;20259;-67
2022/04/14 07:21:51;;;;;;;2.40;2.30;;;16.20;99.90;;;;;;5035766;28;20196;-67
2022/04/14 07:24:18;;;;;;;2.40;2.20;;;16.10;99.90;;;;;;5034921;28;20698;-66
2022/04/14 07:26:47;;;;;;;2.60;2.17;;;16.20;99.90;;;;;;5036875;28;20296;-68
2022/04/14 07:29:14;;;;;;;2.20;2.10;;;16.30;99.90;;;;;;5034049;28;20331;-69
2022/04/14 07:31:42;;;;;;;2.20;2.10;;;16.50;99.90;;;;;;5037815;28;20287;-67
2022/04/14 07:34:10;;;;;;;2.40;2.20;;;16.60;99.90;;;;;;5033125;28;20228;-69
2022/04/14 07:36:37;;;;;;;2.60;2.40;;;16.60;99.90;;;;;;5035240;28;20266;-70
2022/04/14 07:39:05;;;;;;;2.30;2.20;;;16.70;99.90;;;;;;5036354;28;20236;-67
2022/04/14 07:41:32;;;;;;;2.15;2.05;;;16.70;99.90;;;;;;5033361;28;20248;-70
2022/04/14 07:44:00;;;;;;;2.60;2.40;;;16.80;99.90;;;;;;5029078;28;20229;-71
2022/04/14 07:46:27;;;;;;;2.80;2.60;;;16.90;99.90;;;;;;5035239;28;20204;-70
2022/04/14 07:48:54;;;;;;;2.33;2.15;;;17.00;99.90;;;;;;5036381;28;20258;-67
2022/04/14 07:51:21;;;;;;;2.72;2.60;;;17.10;99.90;;;;;;5032949;28;20537;-69
2022/04/14 07:53:48;;;;;;;2.67;2.47;;;17.10;99.90;;;;;;5042336;28;20299;-67
2022/04/14 07:56:15;;;;;;;2.40;2.20;;;17.10;99.90;;;;;;5040586;28;20204;-67
2022/04/14 07:58:45;;;;;;;2.15;2.05;;;17.10;99.90;;;;;;5041576;28;20260;-68
2022/04/14 08:01:13;;;;;;;2.60;2.40;;;17.10;99.90;;;;;;5035788;28;20247;-69
2022/04/14 08:03:40;;;;;;;2.97;2.78;;;17.20;99.90;;;;;;5036068;28;20306;-67
2022/04/14 08:06:07;;;;;;;2.50;2.40;;;17.20;99.90;;;;;;5035080;28;20212;-67
2022/04/14 08:08:34;;;;;;;2.80;2.58;;;17.20;99.90;;;;;;5036097;28;20204;-69
2022/04/14 08:11:03;;;;;;;2.65;2.45;;;17.40;99.90;;;;;;5035000;28;20299;-68
2022/04/14 08:13:35;;;;;;;2.70;2.42;;;17.60;99.90;;;;;;5035062;28;20308;-69
2022/04/14 08:16:06;;;;;;;2.77;2.53;;;17.70;99.90;;;;;;5034133;28;20682;-68
2022/04/14 08:18:35;;;;;;;2.28;2.17;;;17.90;99.90;;;;;;5035064;28;20663;-67
2022/04/14 08:21:02;;;;;;;2.93;2.73;;;18.10;99.90;;;;;;5034407;28;20869;-67
2022/04/14 08:23:29;;;;;;;2.42;2.33;;;18.30;99.90;;;;;;5034276;28;20744;-67
2022/04/14 08:25:56;;;;;;;2.75;2.60;;;18.40;99.90;;;;;;5033936;28;20204;-70
2022/04/14 08:28:23;;;;;;;2.97;2.78;;;18.70;99.90;;;;;;5034263;28;20201;-69
2022/04/14 08:30:52;;;;;;;3.00;2.80;;;18.80;99.90;;;;;;5035186;28;20231;-68
2022/04/14 08:33:20;;;;;;;3.20;3.00;;;18.90;99.90;;;;;;5051964;22;20240;-64
2022/04/14 08:35:49;;;;;;;2.83;2.63;;;18.80;99.90;;;;;;5050941;28;20211;-65
2022/04/14 08:38:16;;;;;;;3.47;3.17;;;18.90;99.90;;;;;;5055347;28;20749;-69
2022/04/14 08:40:47;;;;;;;3.05;2.85;;;19.00;99.90;;;;;;5057586;28;20231;-65
2022/04/14 08:43:18;;;;;;;2.70;2.50;;;19.00;99.90;;;;;;5070411;28;20230;-64
2022/04/14 08:45:47;;;;;;;2.80;2.70;;;19.00;99.90;;;;;;5066645;28;20206;-64
2022/04/14 08:48:15;;;;;;;2.83;2.63;;;19.20;99.90;;;;;;5066407;28;20466;-65
2022/04/14 08:50:43;;;;;;;3.00;2.80;;;19.20;99.90;;;;;;5060705;28;20212;-65
2022/04/14 08:53:12;;;;;;;3.10;2.90;;;19.20;99.90;;;;;;5058642;28;20223;-66
2022/04/14 08:55:41;;;;;;;4.95;3.25;;;19.20;99.90;;;;;;5049578;28;20266;-65
2022/04/14 08:58:14;;;;;;;3.10;2.90;;;19.10;99.90;;;;;;5053927;28;20210;-63
2022/04/14 09:00:41;;;;;;;3.08;2.88;;;18.80;99.90;;;;;;5049334;28;20199;-65
2022/04/14 09:03:09;;;;;;;2.70;2.60;;;18.70;99.90;;;;;;5056505;28;20277;-65
2022/04/14 09:05:36;;;;;;;3.42;3.22;;;18.70;99.90;;;;;;5049720;28;20243;-65
2022/04/14 09:08:03;;;;;;;3.15;2.92;;;18.80;99.90;;;;;;5043656;28;20529;-63
2022/04/14 09:10:31;;;;;;;2.72;2.53;;;18.80;99.90;;;;;;5066337;28;20589;-64
2022/04/14 09:12:58;;;;;;;3.38;3.00;;;18.80;99.90;;;;;;5053216;28;20574;-66
2022/04/14 09:15:27;;;;;;;3.20;3.00;;;19.00;99.90;;;;;;5049110;28;20200;-65
2022/04/14 09:17:55;;;;;;;2.60;2.50;;;19.20;99.90;;;;;;5055407;28;20212;-64
2022/04/14 09:20:31;;;;;;;2.85;2.65;;;19.20;99.90;;;;;;5048555;28;20208;-65
2022/04/14 09:23:20;;;;;;;3.30;3.10;;;19.10;99.90;;;;;;5056020;28;20304;-63
2022/04/14 09:25:50;;;;;;;3.25;3.05;;;19.00;99.90;;;;;;5056493;28;20245;-65
2022/04/14 09:28:20;;;;;;;2.80;2.60;;;18.80;99.90;;;;;;5053804;28;20215;-64
2022/04/14 09:31:02;;;;;;;3.05;2.85;;;18.90;99.90;;;;;;5054329;28;20283;-65
2022/04/14 09:33:30;;;;;;;3.17;2.97;;;19.10;99.90;;;;;;5053282;28;20281;-64
2022/04/14 09:36:17;;;;;;;3.03;2.83;;;19.20;99.90;;;;;;5057240;28;20223;-65
2022/04/14 09:39:02;;;;;;;3.08;2.88;;;19.40;99.90;;;;;;5045082;28;20224;-64
2022/04/14 09:41:45;;;;;;;;;;;;;;;;;;;;;
2022/04/14 09:44:14;;;;;;;3.30;3.10;;;19.60;99.90;;;;;;5056476;28;20334;-64
2022/04/14 09:46:44;;;;;;;3.58;3.38;;;19.80;99.90;;;;;;5057501;28;20239;-64
2022/04/14 09:49:17;;;;;;;4.00;3.70;;;19.70;99.90;;;;;;5036352;28;20200;-63
2022/04/14 09:54:39;;;;;;;3.40;3.20;;;19.70;99.90;;;;;;5055195;28;20251;-64
2022/04/14 09:57:14;;;;;;;4.10;3.83;;;19.90;99.90;;;;;;5040752;28;20213;-66
2022/04/14 09:59:46;;;;;;;4.38;3.97;;;20.00;99.90;;;;;;5049271;28;20671;-65
2022/04/14 10:02:18;;;;;;;3.80;3.60;;;20.10;99.90;;;;;;5050634;28;20208;-65
2022/04/14 10:04:48;;;;;;;4.00;3.70;;;20.20;99.90;;;;;;5036071;28;20232;-64
2022/04/14 10:07:22;;;;;;;4.70;4.40;;;20.40;99.90;;;;;;5033503;28;20209;-63
2022/04/14 10:09:54;;;;;;;4.40;4.10;;;20.30;99.90;;;;;;5048278;28;20200;-65
2022/04/14 10:12:34;;;;;;;4.73;4.43;;;20.40;99.90;;;;;;5054240;28;20226;-64
2022/04/14 10:15:07;;;;;;;4.30;4.00;;;20.40;99.90;;;;;;5052875;28;20221;-64
2022/04/14 10:17:48;;;;;;;5.00;4.70;;;20.50;99.90;;;;;;5052896;28;20204;-63
2022/04/14 10:20:25;;;;;;;5.05;4.68;;;20.40;99.90;;;;;;5053534;28;20307;-64
2022/04/14 10:23:00;;;;;;;5.65;5.25;;;20.50;99.90;;;;;;5053252;28;20212;-64
2022/04/14 10:25:29;;;;;;;4.55;4.30;;;20.60;99.90;;;;;;5041699;28;20254;-65
2022/04/14 10:28:14;;;;;;;4.50;4.30;;;20.80;99.90;;;;;;5047551;28;20287;-65
2022/04/14 10:30:52;;;;;;;4.25;4.05;;;21.20;99.90;;;;;;5050717;28;20212;-64
2022/04/14 10:33:26;;;;;;;4.13;3.90;;;21.30;99.90;;;;;;5054366;28;20224;-65
2022/04/14 10:35:54;;;;;;;4.67;4.37;;;21.40;99.90;;;;;;5048564;28;20207;-63
2022/04/14 10:38:31;;;;;;;4.50;4.20;;;21.30;99.90;;;;;;5054196;28;20299;-65
2022/04/14 10:41:12;;;;;;;4.53;4.33;;;21.20;99.90;;;;;;5045293;28;20199;-64
2022/04/14 10:43:45;;;;;;;4.30;4.10;;;21.00;99.90;;;;;;5048875;28;20230;-65
2022/04/14 10:46:15;;;;;;;3.60;3.40;;;20.90;99.90;;;;;;5044730;28;20227;-64
2022/04/14 10:48:45;;;;;;;3.95;3.70;;;20.90;99.90;;;;;;5050211;28;20200;-64
2022/04/14 10:51:27;;;;;;;4.00;3.65;;;21.00;99.90;;;;;;5051787;28;20690;-65
2022/04/14 10:54:06;;;;;;;3.72;3.53;;;21.00;99.90;;;;;;5052767;28;20231;-64
2022/04/14 10:56:52;;;;;;;3.70;3.50;;;21.00;99.90;;;;;;5051904;28;20204;-65
2022/04/14 10:59:46;;;;;;;3.58;3.38;;;21.10;99.90;;;;;;5049542;28;20205;-65
2022/04/14 11:02:17;;;;;;;3.40;3.20;;;21.00;99.90;;;;;;5053092;28;20208;-66
2022/04/14 11:04:52;;;;;;;3.35;3.15;;;20.90;99.90;;;;;;5054415;28;20224;-66
2022/04/14 11:07:21;;;;;;;3.30;3.10;;;20.60;99.90;;;;;;5056239;28;20200;-66
2022/04/14 11:09:54;;;;;;;3.60;3.30;;;20.60;99.90;;;;;;5051599;28;20303;-64
2022/04/14 11:12:23;;;;;;;3.10;2.92;;;20.70;99.90;;;;;;5055357;28;20283;-66
2022/04/14 11:14:55;;;;;;;3.50;3.30;;;20.70;99.90;;;;;;5051372;28;20226;-64
2022/04/14 11:18:00;;;;;;;3.70;3.50;;;20.60;99.90;;;;;;5050537;28;20212;-65
2022/04/14 11:20:58;;;;;;;3.45;3.25;;;20.50;99.90;;;;;;5052175;28;20298;-66
2022/04/14 11:23:29;;;;;;;3.45;3.25;;;20.50;99.90;;;;;;5047528;28;20220;-65
2022/04/14 11:26:09;;;;;;;3.50;3.30;;;20.80;99.90;;;;;;5048475;28;20206;-64
2022/04/14 11:28:37;;;;;;;3.42;3.22;;;20.90;99.90;;;;;;5057098;28;20282;-66
2022/04/14 11:31:24;;;;;;;3.17;2.97;;;21.10;99.90;;;;;;5055025;28;20207;-65
2022/04/14 11:33:54;;;;;;;3.88;3.65;;;21.10;99.90;;;;;;5054705;28;20278;-66
2022/04/14 11:36:25;;;;;;;3.33;3.13;;;21.00;99.90;;;;;;5053483;28;20208;-66
2022/04/14 11:39:02;;;;;;;3.60;3.40;;;21.00;99.90;;;;;;5060239;28;20208;-68
2022/04/14 11:41:42;;;;;;;3.40;3.20;;;20.90;99.90;;;;;;5059663;28;20200;-65
2022/04/14 11:44:12;;;;;;;3.08;2.88;;;20.90;99.90;;;;;;5072550;28;20250;-65
2022/04/14 11:46:42;;;;;;;3.33;3.13;;;21.20;99.90;;;;;;5073719;28;20207;-67
2022/04/14 11:49:10;;;;;;;3.10;2.90;;;21.20;99.90;;;;;;5067539;28;20219;-65
2022/04/14 11:51:44;;;;;;;6.40;3.40;;;21.10;99.90;;;;;;5067956;28;20204;-64
2022/04/14 11:54:12;;;;;;;3.15;2.95;;;21.10;99.90;;;;;;5076614;28;20242;-65
2022/04/14 11:56:39;;;;;;;3.10;2.90;;;21.30;99.90;;;;;;5066662;28;20211;-65
2022/04/14 11:59:08;;;;;;;3.50;3.20;;;21.40;99.90;;;;;;5063984;28;20676;-65
2022/04/14 12:01:48;;;;;;;3.50;3.20;;;21.70;99.90;;;;;;5069921;28;20288;-65
2022/04/14 12:04:17;;;;;;;3.30;3.10;;;21.60;99.90;;;;;;5054926;28;20216;-64
2022/04/14 12:06:58;;;;;;;2.97;2.83;;;21.60;99.90;;;;;;5058277;28;20248;-66
2022/04/14 12:09:25;;;;;;;3.38;3.17;;;21.70;99.90;;;;;;5058975;28;20200;-64
2022/04/14 12:11:53;;;;;;;2.90;2.70;;;21.80;99.90;;;;;;5060809;28;20279;-65
2022/04/14 12:14:20;;;;;;;3.40;3.20;;;22.00;99.90;;;;;;5058633;28;20220;-65
2022/04/14 12:16:49;;;;;;;3.40;3.20;;;21.80;99.90;;;;;;5052564;28;20257;-65
2022/04/14 12:19:17;;;;;;;3.50;3.20;;;21.90;99.90;;;;;;5049110;28;20239;-66
2022/04/14 12:21:44;;;;;;;3.38;3.17;;;22.00;99.90;;;;;;5053855;28;20240;-65
2022/04/14 12:24:11;;;;;;;3.08;2.78;;;22.20;99.90;;;;;;5054815;28;20223;-66
2022/04/14 12:26:40;;;;;;;3.95;3.30;;;22.30;99.90;;;;;;5052789;28;20203;-64
2022/04/14 12:29:09;;;;;;;2.63;2.53;;;22.40;99.90;;;;;;5056653;28;20204;-66
2022/04/14 12:31:36;;;;;;;3.20;3.00;;;22.20;99.90;;;;;;5066820;28;20204;-64
2022/04/14 12:34:03;;;;;;;3.38;3.17;;;22.40;99.90;;;;;;5065647;28;20256;-65
2022/04/14 12:36:35;;;;;;;3.15;2.95;;;22.40;99.90;;;;;;5053844;28;20287;-65
2022/04/14 12:39:06;;;;;;;4.95;3.83;;;22.50;99.90;;;;;;5056036;28;20240;-64
2022/04/14 12:41:37;;;;;;;3.67;3.10;;;22.20;99.90;;;;;;5057347;28;20698;-64
2022/04/14 12:44:06;;;;;;;3.50;3.30;;;22.10;99.90;;;;;;5054379;28;20225;-65
2022/04/14 12:46:37;;;;;;;3.38;3.10;;;22.10;99.90;;;;;;5054750;28;20204;-64
2022/04/14 12:49:10;;;;;;;4.03;3.53;;;22.30;99.90;;;;;;5051488;28;20829;-65
2022/04/14 12:51:41;;;;;;;3.53;3.22;;;22.30;99.90;;;;;;5057505;28;20204;-66
2022/04/14 12:54:15;;;;;;;2.85;2.65;;;22.20;99.90;;;;;;5055516;28;20247;-65
2022/04/14 12:56:57;;;;;;;2.83;2.63;;;22.20;99.90;;;;;;5053377;28;20648;-64
2022/04/14 12:59:24;;;;;;;3.30;3.10;;;22.40;99.90;;;;;;5057624;28;20578;-65
2022/04/14 13:01:53;;;;;;;3.33;3.05;;;22.40;99.90;;;;;;5053482;28;20287;-66